x

Tillamook, Or - 85 Nm Wnw Of Tillamook, Or (46089) Wave Buoy

8:50pm - Sun 7th Feb 2016 All times are PST. -8 hours from GMT.

  • Sig Wave height 5.2ft
  • Swell Direction
  • Peak Period 11s
  • Average Period 8s
  • Wind
    4mph, 7mph gusts
  • Sea Temp 50°f
  • Air Temp 51°f
  • Sea Pressure 1029.8mb
  • Tillamook, Or - 85 Nm Wnw Of Tillamook, Or
  • Tillamook, Or - 85 Nm Wnw Of Tillamook, Or

More Historic Weather Station data

Upgrade to MSW Pro to gain access to the past 30 days of data for over 8000 Wavebouys and Weather Stations around the globe.

Join Pro

Comparision Forecast

View Surf forecast
   
Sun 02/07 8:50pm 5ft 11s 8s 4 7 mph 1029.8mb 50f 51f
7:50pm 5.5ft 10s 8s 7 9 mph 1030.1mb 50f 51f
6:50pm 6ft 11s 8s 7 9 mph 1030.2mb 50f 51f
5:50pm 6ft 11s 8s 7 9 mph 1030.5mb 50f 51f
4:50pm 6.5ft 10s 8s 9 11 mph 1030.6mb 50f 50f
3:50pm 6ft 11s 8s 4 7 mph 1031mb 50f 49f
2:50pm 7ft 11s 8s 9 11 mph 1030.3mb 50f 49f
1:50pm 6ft 11s 7s 11
mph
1030.4mb 50f 49f
12:50pm 6ft 11s 7s 11 13 mph 1030.7mb 50f 50f
11:50am 6ft 12s 7s 9 11 mph 1031mb 50f 50f
10:50am 6ft 12s 7s 9 11 mph 1031mb 50f 50f
9:50am 5.5ft 12s 7s 13 18 mph 1030.2mb 50f 50f
8:50am 5.5ft 13s 7s 13 18 mph 1029.9mb 50f 50f
7:50am 6ft 13s 7s 13 16 mph 1029.9mb 50f 50f
6:50am 6ft 13s 7s 16 18 mph 1029.5mb 50f 50f
5:50am 6.5ft 14s 8s 13 16 mph 1029.6mb 50f 50f
4:50am 7ft 14s 8s 13 18 mph 1029.7mb 50f 50f
3:50am 7ft 14s 8s 13 18 mph 1029.6mb 50f 50f
2:50am 7.5ft 13s 8s 18 22 mph 1029.5mb 50f 50f
1:50am 8ft 11s 9s 16 20 mph 1028.7mb 50f 50f
12:50am 9ft 12s 9s 13 18 mph 1029.2mb 50f 51f
Sat 02/06 11:50pm 9ft 11s 9s 13 18 mph 1029.4mb 50f 50f
10:50pm 9ft 11s 8s 13 16 mph 1029.4mb 50f 50f
9:50pm 9.5ft 12s 9s 13 18 mph 1029.3mb 50f 50f
8:50pm 9ft 11s 8s 13 18 mph 1028.8mb 50f 50f
7:50pm 8.5ft 13s 9s 13 16 mph 1028.6mb 50f 50f
6:50pm 9ft 13s 9s 9 13 mph 1029.6mb 50f 50f
5:50pm 10ft 13s 9s 11 13 mph 1029.5mb 50f 50f
4:50pm 10ft 13s 9s 11 13 mph 1029.9mb 50f 50f
3:50pm 9ft 13s 8s 11 13 mph 1029.4mb 50f 50f
2:50pm 9ft 13s 8s 9 11 mph 1029.7mb 50f 50f
1:50pm 9.5ft 14s 8s 9 13 mph 1029.8mb 50f 50f
12:50pm 10ft 11s 8s 9 11 mph 1030.2mb 50f 50f
11:50am 10ft 11s 8s 9 13 mph 1030.8mb 50f 50f
10:50am 11ft 9s 8s 7 9 mph 1031mb 50f 50f
9:50am 13ft 13s 9s 4 7 mph 1030.6mb 50f 50f
8:50am 12.5ft 13s 8s 2 4 mph 1030.6mb 50f 50f
7:50am 12ft 13s 8s 4 9 mph 1030.2mb 50f 50f
6:50am 13.5ft 12s 8s 9 11 mph 1030.2mb 50f 50f
5:50am 14ft 13s 9s 11 16 mph 1030.2mb 50f 50f
4:50am 14.5ft 11s 8s 13 16 mph 1029.7mb 50f 50f
3:50am 15.5ft 12s 9s 16 20 mph 1029.1mb 50f 50f
2:50am 14.5ft 13s 8s 18 20 mph 1028.4mb 50f 50f
1:50am 14ft 13s 8s 18 25 mph 1027.7mb 50f 49f
12:50am 14ft 14s 8s 18 22 mph 1026.9mb 50f 49f
Fri 02/05 11:50pm 15.5ft 14s 8s 20 25 mph 1026.4mb 50f 49f
10:50pm 15.5ft 9s 8s 25 29 mph 1025.7mb 50f 49f
9:50pm 15.5ft 14s 8s 22 27 mph 1024.8mb 50f 49f
8:50pm 15.5ft 15s 8s 20 27 mph 1023.8mb 50f 50f
7:50pm 16ft 15s 8s 22 27 mph 1023mb 50f 51f
6:50pm 17.5ft 11s 9s 22 27 mph 1022.2mb 50f 50f
5:50pm 17.5ft 15s 9s 25 29 mph 1020.8mb 50f 50f
4:50pm 19ft 12s 9s 29 36 mph 1019mb 50f 51f
3:50pm 21.5ft 14s 9s 31 40 mph 1016.9mb 50f 52f
2:50pm 21.5ft 13s 9s 29 36 mph 1015.6mb 50f 52f
1:50pm 22.5ft 12s 9s 31 40 mph 1014.8mb 50f 51f
12:50pm 20.5ft 15s 9s 36 45 mph 1013.7mb 50f 52f
11:50am 20.5ft 14s 8s 36 45 mph 1014.8mb 50f 52f
10:50am 19ft 14s 9s 36 45 mph 1015.1mb 50f 52f
9:50am 17.5ft 14s 8s 36 45 mph 1016.1mb 50f 52f
8:50am 19.5ft 14s 9s 34 40 mph 1016.4mb 50f 51f
7:50am 17ft 15s 8s 29 36 mph 1017.2mb 50f 51f
6:50am 16.5ft 14s 8s 29 36 mph 1017.5mb 50f 51f
5:50am 16.5ft 15s 8s 29 36 mph 1018.5mb 50f 51f
4:50am 15.5ft 15s 8s 27 34 mph 1020mb 50f 52f
3:50am 14.5ft 15s 8s 27 34 mph 1020.9mb 50f 51f
2:50am 13.5ft 16s 8s 27 34 mph 1021.1mb 50f 51f
1:50am 14ft 16s 8s 27 31 mph 1021.5mb 50f 51f
12:50am 14ft 16s 8s 27 31 mph 1022mb 50f 52f
Thu 02/04 11:50pm 15ft 16s 8s 25 31 mph 1022.5mb 50f 52f
10:50pm 15ft 13s 8s 29 34 mph 1022.6mb 50f 52f
9:50pm 15.5ft 16s 8s 27 31 mph 1023.1mb 50f 51f
8:50pm 15ft 15s 9s 27 34 mph 1023.5mb 50f 51f
7:50pm 16ft 15s 9s 27 34 mph 1023.8mb 50f 51f
6:50pm 17.5ft 15s 10s 27 36 mph 1024.3mb 50f 51f
5:50pm 16.5ft 16s 9s 27 31 mph 1024.6mb 50f 52f
4:50pm 15.5ft 15s 10s 22 27 mph 1025.4mb 50f 51f
3:50pm 16.5ft 16s 10s 20 25 mph 1025.9mb 50f 51f
2:50pm 15ft 16s 10s 18 22 mph 1026mb 50f 51f
1:50pm 16.5ft 16s 10s 18 22 mph 1026.5mb 50f 51f
12:50pm 14ft 15s 9s 18 20 mph 1026.9mb 50f 51f
11:50am 15ft 16s 10s 18 22 mph 1026.6mb 50f 52f
10:50am 16.5ft 17s 11s 16 20 mph 1026.4mb 50f 51f
9:50am 14ft 17s 10s 16 20 mph 1026mb 50f 51f
8:50am 15.5ft 19s 10s 18 22 mph 1025.6mb 50f 51f
7:50am 16.5ft 15s 10s 18 20 mph 1024.9mb 50f 51f
6:50am 19.5ft 17s 11s 20 25 mph 1024.5mb 50f 51f